createdAt,value
2022-12-01T00:01:45.010Z,2.86
2022-12-01T00:04:13.738Z,2.87
2022-12-01T00:06:42.357Z,2.86
2022-12-01T00:09:21.210Z,2.84
2022-12-01T00:11:50.215Z,2.81
2022-12-01T00:14:20.200Z,2.80
2022-12-01T00:16:49.000Z,2.79
2022-12-01T00:19:17.928Z,2.82
2022-12-01T00:21:47.407Z,2.80
2022-12-01T00:24:16.099Z,2.80
2022-12-01T00:26:44.710Z,2.77
2022-12-01T00:29:13.941Z,2.76
2022-12-01T00:31:44.219Z,2.75
2022-12-01T00:34:23.657Z,2.75
2022-12-01T00:36:52.804Z,2.80
2022-12-01T00:39:22.619Z,2.85
2022-12-01T00:41:51.149Z,2.85
2022-12-01T00:44:19.849Z,2.83
2022-12-01T00:46:49.821Z,2.72
2022-12-01T00:49:18.438Z,2.73
2022-12-01T00:51:47.578Z,2.74
2022-12-01T00:54:16.362Z,2.72
2022-12-01T00:56:45.010Z,2.78
2022-12-01T00:59:13.760Z,2.76
2022-12-01T01:01:42.463Z,2.76
2022-12-01T01:04:12.469Z,2.73
2022-12-01T01:06:43.798Z,2.47
2022-12-01T01:09:13.118Z,2.61
2022-12-01T01:11:41.738Z,2.68
2022-12-01T01:14:12.681Z,2.67
2022-12-01T01:16:41.430Z,2.77
2022-12-01T01:19:10.150Z,2.88
2022-12-01T01:21:40.643Z,2.92
2022-12-01T01:24:09.550Z,2.99
2022-12-01T01:26:39.237Z,3.06
2022-12-01T01:29:08.933Z,3.10
2022-12-01T01:31:37.869Z,3.14
2022-12-01T01:34:06.372Z,3.18
2022-12-01T01:36:35.765Z,3.21
2022-12-01T01:39:05.830Z,3.25
2022-12-01T01:41:34.540Z,3.27
2022-12-01T01:44:04.264Z,3.31
2022-12-01T01:46:33.324Z,3.32
2022-12-01T01:49:04.942Z,3.31
2022-12-01T01:51:38.600Z,3.30
2022-12-01T01:54:15.923Z,3.28
2022-12-01T01:56:45.923Z,3.29
2022-12-01T01:59:18.799Z,3.38
2022-12-01T02:01:53.667Z,3.37
2022-12-01T02:04:22.412Z,3.39
2022-12-01T02:06:50.956Z,3.38
2022-12-01T02:09:22.011Z,3.36
2022-12-01T02:12:04.949Z,3.34
2022-12-01T02:14:49.072Z,3.34
2022-12-01T02:17:30.230Z,3.32
2022-12-01T02:20:30.808Z,3.31
2022-12-01T02:23:23.381Z,3.28
2022-12-01T02:26:12.165Z,3.25
2022-12-01T02:29:04.252Z,3.24
2022-12-01T02:31:41.312Z,3.24
2022-12-01T02:34:16.249Z,3.23
2022-12-01T02:36:50.701Z,3.20
2022-12-01T02:39:25.680Z,3.16
2022-12-01T02:42:01.930Z,3.11
2022-12-01T02:44:35.040Z,3.11
2022-12-01T02:47:12.748Z,3.09
2022-12-01T02:49:46.724Z,3.06
2022-12-01T02:52:20.020Z,3.08
2022-12-01T02:54:49.872Z,3.11
2022-12-01T02:57:18.732Z,3.11
2022-12-01T02:59:52.938Z,3.09
2022-12-01T03:02:35.002Z,3.10
2022-12-01T03:05:10.898Z,3.11
2022-12-01T03:07:52.037Z,3.10
2022-12-01T03:10:29.132Z,3.10
2022-12-01T03:13:11.548Z,3.13
2022-12-01T03:15:50.646Z,3.14
2022-12-01T03:18:30.960Z,3.17
2022-12-01T03:21:06.280Z,2.90
2022-12-01T03:23:39.222Z,3.16
2022-12-01T03:26:12.395Z,3.12
2022-12-01T03:28:47.722Z,3.05
2022-12-01T03:31:21.204Z,3.01
2022-12-01T03:33:56.857Z,2.96
2022-12-01T03:36:30.491Z,2.91
2022-12-01T03:39:04.847Z,2.88
2022-12-01T03:41:39.471Z,2.91
2022-12-01T03:44:13.563Z,2.95
2022-12-01T03:46:49.027Z,2.91
2022-12-01T03:49:20.758Z,2.81
2022-12-01T03:51:57.189Z,2.84
2022-12-01T03:54:35.368Z,2.77
2022-12-01T03:57:07.471Z,2.74
2022-12-01T03:59:38.941Z,2.68
2022-12-01T04:02:07.992Z,2.61
2022-12-01T04:04:38.253Z,2.55
2022-12-01T04:07:06.989Z,2.57
2022-12-01T04:09:35.556Z,2.49
2022-12-01T04:12:14.236Z,2.39
2022-12-01T04:14:42.808Z,2.46
2022-12-01T04:17:11.449Z,2.41
2022-12-01T04:19:41.386Z,2.34
2022-12-01T04:22:10.068Z,2.24
2022-12-01T04:24:39.351Z,2.20
2022-12-01T04:27:08.109Z,2.17
2022-12-01T04:29:36.651Z,2.15
2022-12-01T04:32:05.578Z,2.18
2022-12-01T04:34:34.499Z,2.12
2022-12-01T04:37:06.208Z,2.13
2022-12-01T04:39:34.880Z,2.05
2022-12-01T04:42:03.938Z,1.97
2022-12-01T04:44:34.948Z,1.87
2022-12-01T04:47:04.118Z,1.85
2022-12-01T04:49:32.934Z,1.81
2022-12-01T04:52:01.685Z,1.85
2022-12-01T04:54:31.949Z,1.80
2022-12-01T04:57:01.125Z,1.78
2022-12-01T04:59:29.742Z,1.81
2022-12-01T05:01:58.555Z,1.77
2022-12-01T05:04:28.098Z,1.76
2022-12-01T05:06:56.810Z,1.60
2022-12-01T05:09:25.307Z,1.63
2022-12-01T05:11:55.400Z,1.63
2022-12-01T05:14:24.048Z,1.60
2022-12-01T05:16:52.661Z,1.54
2022-12-01T05:19:31.193Z,1.51
2022-12-01T05:21:59.849Z,1.54
2022-12-01T05:24:28.480Z,1.53
2022-12-01T05:26:58.522Z,1.44
2022-12-01T05:29:27.179Z,1.34
2022-12-01T05:31:55.679Z,1.28
2022-12-01T05:34:24.863Z,1.26
2022-12-01T05:36:53.431Z,1.23
2022-12-01T05:39:22.020Z,1.14
2022-12-01T05:41:50.596Z,1.09
2022-12-01T05:44:21.423Z,1.14
2022-12-01T05:46:50.412Z,1.12
2022-12-01T05:49:19.003Z,1.10
2022-12-01T05:51:47.682Z,1.05
2022-12-01T05:54:16.550Z,1.06
2022-12-01T05:56:45.184Z,1.05
2022-12-01T05:59:13.704Z,0.90
2022-12-01T06:01:45.708Z,0.80
2022-12-01T06:04:14.356Z,0.76
2022-12-01T06:06:42.984Z,0.75
2022-12-01T06:09:11.877Z,0.72
2022-12-01T06:11:40.295Z,0.58
2022-12-01T06:14:08.946Z,0.71
2022-12-01T06:16:37.525Z,0.66
2022-12-01T06:19:07.624Z,0.67
2022-12-01T06:21:36.238Z,0.68
2022-12-01T06:24:05.133Z,0.71
2022-12-01T06:26:33.784Z,0.64
2022-12-01T06:29:02.253Z,0.51
2022-12-01T06:31:30.920Z,0.41
2022-12-01T06:33:59.474Z,0.43
2022-12-01T06:36:29.532Z,0.45
2022-12-01T06:38:58.646Z,0.43
2022-12-01T06:41:27.254Z,0.39
2022-12-01T06:43:55.852Z,0.46
2022-12-01T06:46:24.718Z,0.51
2022-12-01T06:48:53.574Z,0.52
2022-12-01T06:51:22.066Z,0.60
2022-12-01T06:53:54.695Z,0.76
2022-12-01T06:56:24.225Z,0.83
2022-12-01T06:58:53.935Z,0.96
2022-12-01T07:01:24.561Z,1.27
2022-12-01T07:03:55.248Z,1.72
2022-12-01T07:06:24.199Z,2.00
2022-12-01T07:08:54.725Z,2.12
2022-12-01T07:11:23.593Z,2.21
2022-12-01T07:13:56.780Z,2.28
2022-12-01T07:16:25.412Z,2.38
2022-12-01T07:18:54.519Z,2.49
2022-12-01T07:21:24.086Z,2.55
2022-12-01T07:23:54.068Z,2.71
2022-12-01T07:26:22.718Z,2.79
2022-12-01T07:28:51.267Z,2.87
2022-12-01T07:31:21.052Z,3.00
2022-12-01T07:33:49.370Z,3.09
2022-12-01T07:36:18.098Z,3.16
2022-12-01T07:38:46.670Z,3.23
2022-12-01T07:41:19.303Z,3.33
2022-12-01T07:43:51.065Z,3.41
2022-12-01T07:46:23.495Z,3.45
2022-12-01T07:48:53.425Z,3.67
2022-12-01T07:51:23.194Z,3.78
2022-12-01T07:53:52.690Z,3.91
2022-12-01T07:56:23.549Z,3.96
2022-12-01T07:58:52.275Z,4.00
2022-12-01T08:01:22.968Z,3.97
2022-12-01T08:03:53.874Z,3.95
2022-12-01T08:06:24.101Z,3.99
2022-12-01T08:08:53.122Z,4.02
2022-12-01T08:11:24.690Z,4.02
2022-12-01T08:13:54.373Z,4.02
2022-12-01T08:16:24.459Z,4.15
2022-12-01T08:18:54.233Z,4.32
2022-12-01T08:21:24.990Z,4.46
2022-12-01T08:23:55.853Z,4.47
2022-12-01T08:26:27.497Z,4.52
2022-12-01T08:28:56.182Z,4.62
2022-12-01T08:31:26.520Z,4.70
2022-12-01T08:33:55.307Z,4.76
2022-12-01T08:36:25.320Z,4.80
2022-12-01T08:38:55.998Z,4.91
2022-12-01T08:41:26.563Z,5.04
2022-12-01T08:43:58.453Z,5.22
2022-12-01T08:46:35.413Z,5.24
2022-12-01T08:49:07.081Z,5.21
2022-12-01T08:51:36.530Z,5.13
2022-12-01T08:54:05.124Z,5.28
2022-12-01T08:56:37.418Z,5.37
2022-12-01T08:59:06.503Z,5.51
2022-12-01T09:01:35.049Z,5.61
2022-12-01T09:04:09.277Z,5.63
2022-12-01T09:06:41.480Z,5.70
2022-12-01T09:09:11.880Z,5.80
2022-12-01T09:11:44.044Z,5.92
2022-12-01T09:14:13.071Z,5.89
2022-12-01T09:16:41.554Z,5.85
2022-12-01T09:19:12.991Z,5.89
2022-12-01T09:21:43.105Z,5.82
2022-12-01T09:24:13.623Z,5.87
2022-12-01T09:26:44.124Z,5.95
2022-12-01T09:29:15.042Z,6.08
2022-12-01T09:31:43.932Z,6.20
2022-12-01T09:34:15.130Z,6.25
2022-12-01T09:36:44.072Z,6.23
2022-12-01T09:39:15.188Z,6.22
2022-12-01T09:41:49.125Z,6.25
2022-12-01T09:44:30.893Z,6.31
2022-12-01T09:47:06.935Z,6.41
2022-12-01T09:49:46.104Z,6.52
2022-12-01T09:52:18.099Z,6.57
2022-12-01T09:54:47.910Z,6.63
2022-12-01T09:57:26.993Z,6.96
2022-12-01T09:59:56.523Z,7.09
2022-12-01T10:02:33.229Z,7.21
2022-12-01T10:05:07.254Z,7.34
2022-12-01T10:07:41.380Z,7.43
2022-12-01T10:10:15.786Z,7.45
2022-12-01T10:12:48.180Z,7.54
2022-12-01T10:15:28.750Z,7.60
2022-12-01T10:18:14.760Z,7.63
2022-12-01T10:20:51.291Z,7.81
2022-12-01T10:23:36.622Z,8.03
2022-12-01T10:26:14.309Z,8.13
2022-12-01T10:29:11.841Z,8.20
2022-12-01T10:31:51.324Z,8.25
2022-12-01T10:34:24.518Z,8.35
2022-12-01T10:36:53.156Z,8.54
2022-12-01T10:39:26.804Z,8.71
2022-12-01T10:42:07.606Z,8.77
2022-12-01T10:44:38.214Z,8.67
2022-12-01T10:47:17.546Z,8.81
2022-12-01T10:49:46.145Z,8.69
2022-12-01T10:52:33.363Z,8.83
2022-12-01T10:55:02.724Z,9.00
2022-12-01T10:57:32.653Z,9.15
2022-12-01T11:00:09.144Z,9.34
2022-12-01T11:02:38.399Z,9.52
2022-12-01T11:05:20.495Z,9.47
2022-12-01T11:07:50.803Z,9.20
2022-12-01T11:10:22.574Z,9.43
2022-12-01T11:12:57.177Z,9.75
2022-12-01T11:15:29.800Z,9.91
2022-12-01T11:18:00.333Z,9.81
2022-12-01T11:20:33.729Z,9.76
2022-12-01T11:23:25.913Z,9.91
2022-12-01T11:26:02.339Z,10.07
2022-12-01T11:28:32.136Z,10.13
2022-12-01T11:31:06.416Z,10.12
2022-12-01T11:33:45.235Z,10.14
2022-12-01T11:36:26.895Z,10.30
2022-12-01T11:39:02.372Z,10.28
2022-12-01T11:41:35.748Z,10.27
2022-12-01T11:44:12.826Z,10.29
2022-12-01T11:47:01.655Z,10.37
2022-12-01T11:49:47.063Z,10.35
2022-12-01T11:52:25.283Z,10.36
2022-12-01T11:54:58.937Z,10.35
2022-12-01T11:57:34.806Z,10.46
2022-12-01T12:00:14.052Z,10.67
2022-12-01T12:02:56.176Z,10.83
2022-12-01T12:09:04.034Z,11.60
2022-12-01T12:11:41.981Z,11.87
2022-12-01T12:14:28.328Z,12.22
2022-12-01T12:17:17.683Z,12.58
2022-12-01T12:20:11.747Z,12.95
2022-12-01T12:22:54.998Z,13.24
2022-12-01T12:25:31.989Z,13.58
2022-12-01T12:28:14.690Z,13.54
2022-12-01T12:30:52.280Z,13.37
2022-12-01T12:33:47.467Z,13.08
2022-12-01T12:36:28.852Z,13.01
2022-12-01T12:39:16.412Z,12.95
2022-12-01T12:41:48.036Z,12.67
2022-12-01T12:44:40.606Z,12.13
2022-12-01T12:47:23.367Z,11.78
2022-12-01T12:50:02.955Z,11.19
2022-12-01T12:52:35.930Z,10.98
2022-12-01T12:55:13.058Z,10.76
2022-12-01T12:57:46.549Z,10.56
2022-12-01T13:00:17.932Z,10.47
2022-12-01T13:02:50.969Z,10.33
2022-12-01T13:05:24.669Z,10.16
2022-12-01T13:07:58.343Z,9.95
2022-12-01T13:10:34.534Z,9.80
2022-12-01T13:13:19.046Z,9.73
2022-12-01T13:15:49.579Z,9.56
2022-12-01T13:18:29.160Z,9.38
2022-12-01T13:20:59.377Z,9.36
2022-12-01T13:23:29.960Z,9.29
2022-12-01T13:26:02.989Z,9.18
2022-12-01T13:28:38.327Z,9.08
2022-12-01T13:31:10.280Z,8.86
2022-12-01T13:33:54.959Z,8.65
2022-12-01T13:36:45.665Z,8.47
2022-12-01T13:39:21.598Z,8.38
2022-12-01T13:42:02.112Z,8.34
2022-12-01T13:44:36.306Z,8.31
2022-12-01T13:47:17.407Z,8.25
2022-12-01T13:49:48.872Z,8.22
2022-12-01T13:52:37.281Z,8.20
2022-12-01T13:55:28.509Z,8.13
2022-12-01T13:58:18.902Z,8.09
2022-12-01T14:00:47.910Z,8.03
2022-12-01T14:03:38.901Z,7.97
2022-12-01T14:06:21.890Z,7.87
2022-12-01T14:08:51.780Z,7.79
2022-12-01T14:11:25.822Z,7.78
2022-12-01T14:13:58.549Z,7.70
2022-12-01T14:16:46.598Z,7.63
2022-12-01T14:19:31.648Z,7.61
2022-12-01T14:22:01.338Z,7.49
2022-12-01T14:24:35.151Z,7.41
2022-12-01T14:27:07.157Z,7.36
2022-12-01T14:29:38.690Z,7.28
2022-12-01T14:32:25.222Z,7.24
2022-12-01T14:35:06.478Z,7.16
2022-12-01T14:37:47.645Z,6.98
2022-12-01T14:40:26.518Z,6.83
2022-12-01T14:43:09.018Z,6.68
2022-12-01T14:45:42.818Z,6.59
2022-12-01T14:48:15.506Z,6.54
2022-12-01T14:50:49.393Z,6.44
2022-12-01T14:53:25.487Z,6.25
2022-12-01T14:55:57.729Z,6.22
2022-12-01T14:58:30.295Z,6.09
2022-12-01T15:01:05.280Z,5.85
2022-12-01T15:03:39.867Z,5.59
2022-12-01T15:06:09.358Z,5.40
2022-12-01T15:08:43.636Z,5.28
2022-12-01T15:11:25.733Z,5.26
2022-12-01T15:13:57.472Z,5.33
2022-12-01T15:16:27.448Z,5.24
2022-12-01T15:18:56.177Z,5.06
2022-12-01T15:21:27.588Z,4.90
2022-12-01T15:23:59.406Z,4.82
2022-12-01T15:26:32.460Z,4.74
2022-12-01T15:29:17.585Z,4.61
2022-12-01T15:31:48.782Z,4.52
2022-12-01T15:34:23.540Z,4.48
2022-12-01T15:36:53.617Z,4.33
2022-12-01T15:39:30.359Z,4.28
2022-12-01T15:42:00.995Z,4.23
2022-12-01T15:44:34.129Z,4.10
2022-12-01T15:47:32.675Z,4.01
2022-12-01T15:50:01.256Z,3.92
2022-12-01T15:52:30.495Z,3.97
2022-12-01T15:55:04.502Z,3.87
2022-12-01T15:57:34.295Z,3.74
2022-12-01T16:00:05.649Z,3.72
2022-12-01T16:02:41.267Z,3.64
2022-12-01T16:05:19.277Z,3.54
2022-12-01T16:08:12.807Z,3.55
2022-12-01T16:10:38.307Z,3.55
2022-12-01T16:13:28.778Z,3.58
2022-12-01T16:15:59.112Z,3.67
2022-12-01T16:18:34.033Z,3.68
2022-12-01T16:21:06.860Z,3.52
2022-12-01T16:23:35.518Z,3.47
2022-12-01T16:26:09.915Z,3.41
2022-12-01T16:28:38.817Z,3.28
2022-12-01T16:31:22.520Z,3.28
2022-12-01T16:34:13.816Z,3.24
2022-12-01T16:36:51.516Z,3.19
2022-12-01T16:39:20.340Z,3.20
2022-12-01T16:41:49.089Z,3.14
2022-12-01T16:44:28.616Z,3.08
2022-12-01T16:47:00.098Z,3.12
2022-12-01T16:49:28.767Z,3.13
2022-12-01T16:51:58.149Z,3.18
2022-12-01T16:54:28.486Z,3.15
2022-12-01T16:56:57.110Z,3.11
2022-12-01T16:59:26.436Z,2.99
2022-12-01T17:01:55.150Z,2.91
2022-12-01T17:04:28.028Z,2.81
2022-12-01T17:06:56.787Z,2.76
2022-12-01T17:09:25.336Z,2.74
2022-12-01T17:11:56.498Z,2.66
2022-12-01T17:14:25.700Z,2.57
2022-12-01T17:16:54.445Z,2.57
2022-12-01T17:19:23.134Z,2.63
2022-12-01T17:21:56.107Z,2.66
2022-12-01T17:24:26.100Z,2.65
2022-12-01T17:26:54.568Z,2.65
2022-12-01T17:29:23.596Z,2.61
2022-12-01T17:31:54.226Z,2.47
2022-12-01T17:34:23.129Z,2.49
2022-12-01T17:36:56.095Z,2.42
2022-12-01T17:39:24.907Z,2.29
2022-12-01T17:41:55.546Z,2.30
2022-12-01T17:44:24.269Z,2.16
2022-12-01T17:46:52.943Z,2.03
2022-12-01T17:49:21.920Z,2.05
2022-12-01T17:51:50.643Z,2.09
2022-12-01T17:54:21.177Z,2.03
2022-12-01T17:56:49.740Z,1.92
2022-12-01T17:59:18.367Z,1.79
2022-12-01T18:01:47.134Z,1.81
2022-12-01T18:04:15.706Z,1.75
2022-12-01T18:06:46.016Z,1.94
2022-12-01T18:09:20.256Z,1.98
2022-12-01T18:11:49.455Z,1.73
2022-12-01T18:14:18.434Z,1.86
2022-12-01T18:16:47.665Z,1.79
2022-12-01T18:19:16.419Z,1.87
2022-12-01T18:21:45.737Z,1.89
2022-12-01T18:24:14.518Z,1.96
2022-12-01T18:26:44.537Z,1.99
2022-12-01T18:29:16.283Z,1.92
2022-12-01T18:31:45.149Z,1.89
2022-12-01T18:34:14.120Z,1.85
2022-12-01T18:36:43.031Z,1.83
2022-12-01T18:39:12.997Z,1.84
2022-12-01T18:41:42.228Z,1.88
2022-12-01T18:44:12.770Z,1.86
2022-12-01T18:46:41.518Z,1.90
2022-12-01T18:49:10.799Z,1.77
2022-12-01T18:51:39.968Z,2.02
2022-12-01T18:54:10.158Z,1.89
2022-12-01T18:56:38.792Z,2.14
2022-12-01T18:59:08.568Z,2.26
2022-12-01T19:01:40.936Z,2.32
2022-12-01T19:04:10.947Z,2.28
2022-12-01T19:06:41.977Z,2.28
2022-12-01T19:09:13.319Z,2.35
2022-12-01T19:11:42.649Z,2.36
2022-12-01T19:14:15.719Z,2.37
2022-12-01T19:16:46.522Z,2.40
2022-12-01T19:19:15.372Z,2.42
2022-12-01T19:21:45.490Z,2.40
2022-12-01T19:24:14.567Z,2.37
2022-12-01T19:26:43.125Z,2.37
2022-12-01T19:29:12.287Z,2.38
2022-12-01T19:31:41.166Z,2.33
2022-12-01T19:34:11.181Z,2.37
2022-12-01T19:36:39.943Z,2.39
2022-12-01T19:39:08.637Z,2.41
2022-12-01T19:41:38.852Z,2.42
2022-12-01T19:44:07.667Z,2.41
2022-12-01T19:46:36.399Z,2.39
2022-12-01T19:49:06.759Z,2.36
2022-12-01T19:51:39.214Z,2.36
2022-12-01T19:54:09.533Z,2.32
2022-12-01T19:56:38.145Z,2.26
2022-12-01T19:59:08.282Z,2.21
2022-12-01T20:01:36.874Z,2.20
2022-12-01T20:04:05.965Z,2.18
2022-12-01T20:06:37.889Z,1.90
2022-12-01T20:09:10.221Z,2.15
2022-12-01T20:11:38.893Z,1.97
2022-12-01T20:14:08.853Z,1.96
2022-12-01T20:16:39.008Z,2.01
2022-12-01T20:19:07.762Z,2.03
2022-12-01T20:21:42.814Z,2.05
2022-12-01T20:24:14.832Z,2.03
2022-12-01T20:26:46.135Z,2.06
2022-12-01T20:29:17.012Z,1.95
2022-12-01T20:31:46.908Z,2.03
2022-12-01T20:34:18.671Z,2.01
2022-12-01T20:36:49.444Z,2.04
2022-12-01T20:39:18.031Z,2.06
2022-12-01T20:41:47.405Z,2.04
2022-12-01T20:44:16.819Z,2.09
2022-12-01T20:46:47.860Z,2.08
2022-12-01T20:49:18.231Z,2.12
2022-12-01T20:51:48.746Z,2.10
2022-12-01T20:54:27.715Z,2.09
2022-12-01T20:56:57.949Z,2.03
2022-12-01T20:59:26.786Z,2.01
2022-12-01T21:01:56.009Z,2.01
2022-12-01T21:04:24.587Z,1.96
2022-12-01T21:06:57.064Z,1.97
2022-12-01T21:09:27.955Z,1.98
2022-12-01T21:12:08.898Z,1.95
2022-12-01T21:14:39.484Z,1.94
2022-12-01T21:17:19.955Z,1.88
2022-12-01T21:19:54.989Z,1.88
2022-12-01T21:22:26.294Z,1.93
2022-12-01T21:25:03.064Z,1.87
2022-12-01T21:27:31.947Z,1.89
2022-12-01T21:30:00.427Z,1.90
2022-12-01T21:32:32.627Z,1.91
2022-12-01T21:35:09.395Z,1.92
2022-12-01T21:37:39.955Z,1.89
2022-12-01T21:40:16.870Z,1.89
2022-12-01T21:42:45.587Z,1.89
2022-12-01T21:45:24.090Z,1.84
2022-12-01T21:47:52.637Z,1.92
2022-12-01T21:50:25.581Z,1.92
2022-12-01T21:52:55.554Z,1.89
2022-12-01T21:55:37.374Z,1.88
2022-12-01T21:58:22.998Z,1.87
2022-12-01T22:00:51.884Z,1.92
2022-12-01T22:03:28.507Z,1.95
2022-12-01T22:08:55.674Z,1.93
2022-12-01T22:11:25.835Z,1.88
2022-12-01T22:14:01.072Z,1.99
2022-12-01T22:16:32.229Z,1.98
2022-12-01T22:19:02.979Z,2.02
2022-12-01T22:21:38.260Z,1.97
2022-12-01T22:24:28.483Z,2.00
2022-12-01T22:27:22.667Z,1.81
2022-12-01T22:29:53.788Z,2.00
2022-12-01T22:32:35.187Z,2.01
2022-12-01T22:35:21.894Z,2.03
2022-12-01T22:37:51.806Z,2.01
2022-12-01T22:40:34.676Z,2.06
2022-12-01T22:43:26.021Z,2.09
2022-12-01T22:46:16.278Z,2.14
2022-12-01T22:48:47.117Z,2.13
2022-12-01T22:51:43.953Z,2.18
2022-12-01T22:54:28.317Z,2.21
2022-12-01T22:57:04.282Z,2.14
2022-12-01T22:59:36.830Z,2.21
2022-12-01T23:02:19.385Z,2.20
2022-12-01T23:04:53.598Z,2.22
2022-12-01T23:07:35.466Z,2.21
2022-12-01T23:10:09.721Z,2.14
2022-12-01T23:12:38.831Z,2.18
2022-12-01T23:15:30.711Z,2.20
2022-12-01T23:18:07.661Z,2.20
2022-12-01T23:20:36.773Z,2.13
2022-12-01T23:23:09.784Z,2.03
2022-12-01T23:25:38.409Z,2.09
2022-12-01T23:28:08.902Z,2.09
2022-12-01T23:30:42.851Z,2.11
2022-12-01T23:33:18.292Z,2.07
2022-12-01T23:35:49.704Z,2.08
2022-12-01T23:38:20.771Z,2.06
2022-12-01T23:40:51.015Z,2.01
2022-12-01T23:43:22.840Z,2.00
2022-12-01T23:46:01.735Z,1.97
2022-12-01T23:48:35.461Z,1.95
2022-12-01T23:51:04.191Z,1.91
2022-12-01T23:53:34.369Z,1.87
2022-12-01T23:56:08.174Z,1.86
2022-12-01T23:58:36.971Z,1.86
